createdAt,value
2019-03-27T00:01:57.672Z,7.53
2019-03-27T00:07:21.753Z,7.42
2019-03-27T00:12:26.093Z,7.45
2019-03-27T00:17:30.479Z,6.50
2019-03-27T00:22:35.179Z,8.20
2019-03-27T00:27:39.457Z,6.20
2019-03-27T00:32:45.460Z,5.03
2019-03-27T00:37:49.728Z,7.92
2019-03-27T00:42:53.832Z,6.80
2019-03-27T00:47:57.967Z,9.23
2019-03-27T00:53:02.212Z,7.22
2019-03-27T00:58:07.518Z,7.67
2019-03-27T01:03:11.724Z,3.95
2019-03-27T01:08:16.070Z,2.85
2019-03-27T01:13:21.376Z,9.18
2019-03-27T01:18:27.857Z,9.17
2019-03-27T01:23:32.392Z,7.60
2019-03-27T01:28:36.691Z,4.87
2019-03-27T01:33:41.921Z,6.83
2019-03-27T01:38:47.323Z,7.47
2019-03-27T01:43:51.988Z,6.37
2019-03-27T01:48:56.119Z,6.60
2019-03-27T01:54:00.981Z,4.55
2019-03-27T01:59:04.985Z,4.95
2019-03-27T02:04:09.133Z,2.45
2019-03-27T02:09:14.121Z,5.65
2019-03-27T02:14:18.465Z,5.00
2019-03-27T02:19:22.643Z,6.42
2019-03-27T02:24:27.923Z,4.85
2019-03-27T02:29:32.360Z,6.47
2019-03-27T02:34:37.718Z,7.00
2019-03-27T02:39:42.671Z,10.05
2019-03-27T02:44:47.845Z,8.58
2019-03-27T02:49:51.993Z,9.98
2019-03-27T02:55:08.018Z,9.03
2019-03-27T03:00:13.046Z,9.38
2019-03-27T03:05:17.279Z,8.73
2019-03-27T03:10:21.768Z,7.10
2019-03-27T03:15:27.259Z,7.00
2019-03-27T03:20:32.455Z,6.12
2019-03-27T03:25:37.387Z,7.45
2019-03-27T03:30:41.913Z,7.17
2019-03-27T03:35:47.196Z,7.22
2019-03-27T03:40:51.326Z,6.87
2019-03-27T03:45:56.299Z,7.85
2019-03-27T03:51:02.472Z,6.72
2019-03-27T03:56:09.052Z,8.08
2019-03-27T04:01:16.794Z,6.80
2019-03-27T04:06:21.258Z,7.45
2019-03-27T04:11:25.380Z,6.50
2019-03-27T04:16:29.978Z,7.62
2019-03-27T04:21:36.859Z,6.40
2019-03-27T04:26:41.047Z,6.33
2019-03-27T04:31:45.193Z,6.60
2019-03-27T04:36:49.818Z,5.60
2019-03-27T04:41:54.233Z,6.15
2019-03-27T04:46:59.613Z,6.62
2019-03-27T04:52:04.264Z,5.95
2019-03-27T04:57:08.407Z,6.33
2019-03-27T05:02:12.526Z,7.80
2019-03-27T05:07:30.168Z,7.67
2019-03-27T05:12:38.430Z,7.53
2019-03-27T05:17:46.081Z,7.15
2019-03-27T05:22:49.394Z,7.17
2019-03-27T05:27:54.169Z,7.75
2019-03-27T05:32:59.438Z,6.37
2019-03-27T05:38:03.987Z,6.70
2019-03-27T05:43:08.298Z,7.22
2019-03-27T05:48:13.229Z,7.67
2019-03-27T05:53:17.352Z,7.92
2019-03-27T05:58:21.463Z,10.15
2019-03-27T06:03:26.223Z,8.88
2019-03-27T06:08:31.163Z,8.58
2019-03-27T06:13:35.312Z,5.40
2019-03-27T06:18:40.232Z,6.70
2019-03-27T06:23:46.019Z,6.20
2019-03-27T06:28:50.172Z,8.98
2019-03-27T06:33:54.312Z,10.43
2019-03-27T06:38:58.614Z,9.73
2019-03-27T06:44:04.226Z,7.70
2019-03-27T06:49:09.022Z,10.13
2019-03-27T06:54:13.264Z,9.25
2019-03-27T06:59:18.654Z,7.92
2019-03-27T07:04:22.731Z,9.15
2019-03-27T07:09:27.684Z,7.60
2019-03-27T07:14:32.591Z,7.55
2019-03-27T07:19:36.728Z,6.42
2019-03-27T07:24:42.846Z,5.20
2019-03-27T07:29:48.211Z,3.67
2019-03-27T07:34:54.185Z,4.03
2019-03-27T07:39:59.291Z,5.25
2019-03-27T07:45:05.191Z,5.58
2019-03-27T07:50:10.014Z,5.90
2019-03-27T07:55:19.588Z,6.03
2019-03-27T08:00:21.997Z,4.47
2019-03-27T08:05:26.136Z,3.37
2019-03-27T08:10:30.252Z,3.83
2019-03-27T08:15:34.401Z,4.78
2019-03-27T08:20:38.818Z,3.35
2019-03-27T08:25:43.281Z,3.15
2019-03-27T08:30:47.702Z,1.62
2019-03-27T08:35:52.174Z,2.95
2019-03-27T08:40:56.727Z,2.30
2019-03-27T08:46:01.813Z,1.72
2019-03-27T08:51:05.993Z,2.75
2019-03-27T08:56:10.282Z,2.52
2019-03-27T09:01:15.271Z,1.77
2019-03-27T09:06:32.787Z,2.00
2019-03-27T09:11:26.050Z,2.93
2019-03-27T09:16:30.990Z,2.45
2019-03-27T09:21:35.178Z,2.55
2019-03-27T09:26:39.860Z,1.70
2019-03-27T09:31:45.535Z,2.12
2019-03-27T09:36:51.254Z,1.77
2019-03-27T09:41:55.388Z,1.20
2019-03-27T09:47:01.162Z,2.22
2019-03-27T09:52:05.545Z,0.75
2019-03-27T09:57:09.771Z,1.25
2019-03-27T10:02:18.339Z,1.62
2019-03-27T10:07:22.490Z,1.30
2019-03-27T10:12:26.627Z,1.75
2019-03-27T10:17:31.448Z,1.10
2019-03-27T10:22:36.305Z,1.10
2019-03-27T10:27:41.001Z,1.22
2019-03-27T10:32:46.399Z,0.57
2019-03-27T10:37:50.528Z,0.95
2019-03-27T10:42:56.381Z,1.57
2019-03-27T10:48:01.108Z,0.88
2019-03-27T10:53:06.463Z,0.50
2019-03-27T10:58:12.483Z,0.82
2019-03-27T11:03:18.300Z,0.78
2019-03-27T11:08:22.438Z,0.80
2019-03-27T11:13:27.452Z,0.90
2019-03-27T11:18:32.655Z,1.17
2019-03-27T11:23:38.590Z,1.00
2019-03-27T11:28:42.894Z,1.50
2019-03-27T11:33:47.110Z,1.22
2019-03-27T11:38:52.173Z,1.42
2019-03-27T11:43:57.179Z,1.70
2019-03-27T11:49:02.597Z,1.70
2019-03-27T11:54:06.735Z,1.60
2019-03-27T11:59:10.850Z,1.98
2019-03-27T12:04:17.369Z,0.95
2019-03-27T12:09:21.888Z,1.30
2019-03-27T12:14:26.177Z,1.87
2019-03-27T12:19:30.375Z,2.25
2019-03-27T12:24:35.201Z,1.32
2019-03-27T12:29:39.452Z,1.85
2019-03-27T12:34:44.891Z,2.83
2019-03-27T12:39:48.994Z,2.77
2019-03-27T12:44:53.541Z,2.47
2019-03-27T12:49:59.176Z,1.57
2019-03-27T12:55:04.149Z,3.42
2019-03-27T13:00:11.178Z,3.60
2019-03-27T13:05:16.308Z,3.30
2019-03-27T13:10:20.423Z,2.90
2019-03-27T13:15:25.625Z,3.27
2019-03-27T13:20:29.769Z,3.80
2019-03-27T13:25:34.911Z,3.75
2019-03-27T13:30:40.850Z,2.60
2019-03-27T13:35:45.363Z,2.80
2019-03-27T13:40:49.893Z,3.08
2019-03-27T13:45:54.458Z,3.90
2019-03-27T13:50:59.086Z,3.37
2019-03-27T13:56:04.724Z,2.35
2019-03-27T14:01:09.202Z,2.35
2019-03-27T14:06:17.247Z,2.92
2019-03-27T14:11:21.565Z,3.50
2019-03-27T14:16:26.454Z,3.52
2019-03-27T14:21:30.681Z,2.83
2019-03-27T14:26:44.908Z,2.15
2019-03-27T14:31:41.062Z,2.70
2019-03-27T14:36:47.241Z,3.80
2019-03-27T14:41:53.421Z,3.07
2019-03-27T14:46:58.019Z,1.50
2019-03-27T14:52:08.124Z,2.42
2019-03-27T15:02:13.530Z,2.50
2019-03-27T15:07:20.049Z,1.85
2019-03-27T15:12:25.274Z,2.37
2019-03-27T15:17:29.598Z,1.70
2019-03-27T15:22:33.709Z,1.97
2019-03-27T15:27:37.818Z,2.70
2019-03-27T15:32:42.187Z,2.10
2019-03-27T15:37:46.646Z,2.30
2019-03-27T15:42:50.801Z,2.90
2019-03-27T15:47:55.764Z,2.67
2019-03-27T15:53:00.149Z,2.67
2019-03-27T15:58:04.601Z,2.22
2019-03-27T16:03:09.613Z,2.50
2019-03-27T16:08:16.330Z,2.75
2019-03-27T16:13:21.286Z,3.02
2019-03-27T16:18:25.180Z,2.65
2019-03-27T16:23:32.437Z,3.17
2019-03-27T16:28:36.665Z,3.05
2019-03-27T16:33:42.007Z,3.37
2019-03-27T16:38:46.292Z,3.40
2019-03-27T16:43:51.490Z,3.62
2019-03-27T16:48:55.600Z,3.77
2019-03-27T16:54:00.861Z,3.58
2019-03-27T16:59:05.019Z,3.60
2019-03-27T17:04:11.753Z,4.47
2019-03-27T17:09:19.677Z,4.83
2019-03-27T17:14:24.292Z,6.22
2019-03-27T17:19:28.443Z,5.37
2019-03-27T17:24:33.229Z,6.25
2019-03-27T17:29:37.807Z,6.05
2019-03-27T17:34:42.326Z,6.60
2019-03-27T17:39:46.737Z,6.17
2019-03-27T17:44:52.213Z,5.20
2019-03-27T17:49:56.593Z,6.30
2019-03-27T17:55:01.051Z,5.40
2019-03-27T18:00:07.357Z,5.00
2019-03-27T18:05:13.198Z,6.15
2019-03-27T18:10:17.361Z,7.85
2019-03-27T18:15:21.301Z,9.40
2019-03-27T18:20:27.288Z,7.00
2019-03-27T18:25:32.323Z,8.45
2019-03-27T18:30:36.617Z,11.75
2019-03-27T18:35:41.070Z,9.20
2019-03-27T18:40:46.562Z,9.33
2019-03-27T18:45:51.071Z,8.83
2019-03-27T18:50:56.084Z,9.30
2019-03-27T18:56:00.658Z,13.05
2019-03-27T19:01:06.288Z,10.85
2019-03-27T19:06:10.463Z,9.35
2019-03-27T19:11:15.410Z,8.73
2019-03-27T19:16:21.273Z,10.53
2019-03-27T19:21:26.294Z,11.73
2019-03-27T19:26:30.425Z,9.93
2019-03-27T19:31:34.591Z,8.65
2019-03-27T19:36:39.957Z,9.63
2019-03-27T19:41:44.713Z,10.25
2019-03-27T19:46:48.832Z,11.00
2019-03-27T19:51:53.223Z,10.60
2019-03-27T19:56:59.118Z,11.33
2019-03-27T20:02:03.323Z,12.95
2019-03-27T20:07:07.412Z,8.60
2019-03-27T20:12:11.499Z,12.20
2019-03-27T20:17:15.933Z,10.00
2019-03-27T20:22:20.142Z,11.90
2019-03-27T20:27:24.689Z,13.32
2019-03-27T20:32:28.844Z,8.53
2019-03-27T20:37:32.986Z,10.38
2019-03-27T20:42:37.150Z,10.30
2019-03-27T20:47:41.438Z,12.65
2019-03-27T20:52:46.596Z,11.40
2019-03-27T20:57:51.041Z,14.68
2019-03-27T21:02:55.141Z,13.78
2019-03-27T21:07:59.370Z,12.07
2019-03-27T21:13:04.201Z,13.25
2019-03-27T21:18:08.669Z,11.15
2019-03-27T21:23:13.172Z,11.65
2019-03-27T21:28:17.417Z,9.23
2019-03-27T21:33:21.617Z,14.60
2019-03-27T21:38:27.221Z,14.58
2019-03-27T21:44:31.633Z,11.30
2019-03-27T21:49:36.685Z,5.83
2019-03-27T21:54:41.745Z,11.05
2019-03-27T21:59:45.964Z,10.50
2019-03-27T22:04:51.447Z,10.53
2019-03-27T22:09:56.604Z,8.83
2019-03-27T22:15:01.168Z,15.43
2019-03-27T22:20:05.811Z,4.92
2019-03-27T22:25:09.951Z,16.25
2019-03-27T22:30:14.914Z,16.07
2019-03-27T22:35:19.069Z,14.40
2019-03-27T22:40:23.420Z,14.63
2019-03-27T22:45:28.805Z,18.10
2019-03-27T22:50:33.904Z,13.43
2019-03-27T22:55:48.945Z,15.25
2019-03-27T23:05:52.458Z,15.28
2019-03-27T23:10:57.615Z,16.57
2019-03-27T23:16:01.784Z,17.80
2019-03-27T23:21:05.976Z,16.42
2019-03-27T23:26:10.111Z,18.50
2019-03-27T23:31:16.256Z,19.92
2019-03-27T23:36:21.291Z,20.48
2019-03-27T23:41:25.932Z,22.58
2019-03-27T23:46:30.082Z,19.85
2019-03-27T23:51:35.040Z,18.62
2019-03-27T23:56:41.293Z,20.30
